»·PEaware :: N733NB KSMX-KSBP

N733NB :: KSMX-KSBP

FLIGHT INFORMATION

Flight Status: Arrived
Operator: Privately registered:
United States
More flights under this callsign
Pilot: Todd P. (5750)
Aircraft: CESSNA 172 SKYHAWK
(C172)
More flights by this aircraft type
Origin: KSMX Santa Maria Pub/Capt Hancock
United States
Destination: KSBP San Luis Co Regl
United States
More flights between these airports :: More routes between these airports
Route: GLJ MQO
File this flight plan on PilotEdge
Remarks:
Altitude:
(Current/Filed)
4,000ft
Speed:
(Current/Filed)
100kts
Departed: 23-May-15 06:53 PM
Arrived: 23-May-15 07:21 PM
Distance/Time
Traveled:
22nm/0:28
Distance/Time
To Go:
Arrived

Flight Plot

Page will automatically refresh every two minutes.


Map Options




Map Legend


Flown Route
Filed Route
Departure Airport
Arrival Airport
Navaid (VOR, NDB)
Fix

Horizontal Profiles

Position Reports

Time Latitude Longitude Heading Altitude Ground
Speed
23-May-15 18:29 34.899029 -120.449325 255 243ft 0kts
23-May-15 18:30 34.899029 -120.449325 255 243ft 0kts
23-May-15 18:31 34.899029 -120.449325 255 243ft 0kts
23-May-15 18:32 34.899029 -120.449325 255 243ft 0kts
23-May-15 18:33 34.899029 -120.449325 255 243ft 0kts
23-May-15 18:34 34.899029 -120.449325 255 243ft 0kts
23-May-15 18:35 34.899029 -120.449325 255 243ft 0kts
23-May-15 18:36 34.899029 -120.449325 255 243ft 0kts
23-May-15 18:37 34.899029 -120.449325 255 243ft 0kts
23-May-15 18:38 34.899029 -120.449325 255 243ft 0kts
23-May-15 18:39 34.899029 -120.449325 255 243ft 0kts
23-May-15 18:40 34.899029 -120.449325 255 243ft 0kts
23-May-15 18:41 34.899029 -120.449325 255 243ft 0kts
23-May-15 18:42 34.899029 -120.449325 255 243ft 0kts
23-May-15 18:43 34.899029 -120.449325 255 243ft 0kts
23-May-15 18:44 34.899029 -120.449325 255 243ft 0kts
23-May-15 18:45 34.897389 -120.448847 134 248ft 29kts
23-May-15 18:46 34.893242 -120.445109 290 260ft 0kts
23-May-15 18:47 34.893242 -120.445109 290 260ft 0kts
23-May-15 18:48 34.892959 -120.445592 222 259ft 11kts
23-May-15 18:49 34.899327 -120.454260 304 767ft 50kts
23-May-15 18:50 34.908039 -120.452829 102 1634ft 85kts
23-May-15 18:51 34.895529 -120.426850 118 2442ft 92kts
23-May-15 18:52 34.881489 -120.399040 119 3241ft 90kts
23-May-15 18:53 34.879090 -120.376582 329 3948ft 57kts
23-May-15 18:54 34.892827 -120.393143 325 3990ft 79kts
23-May-15 18:55 34.907648 -120.411924 312 3971ft 73kts
23-May-15 18:56 34.922757 -120.433143 316 3996ft 73kts
23-May-15 18:57 34.933190 -120.456157 294 4077ft 79kts
23-May-15 18:58 34.937433 -120.473479 293 3942ft 85kts
23-May-15 18:59 34.944600 -120.497146 301 3917ft 78kts
23-May-15 19:00 34.957669 -120.518481 350 3882ft 85kts
23-May-15 19:01 34.977189 -120.526424 336 4035ft 71kts
23-May-15 19:02 34.995976 -120.513819 34 4006ft 93kts
23-May-15 19:03 35.016589 -120.497190 7 4004ft 84kts
23-May-15 19:04 35.038457 -120.487778 4 4057ft 87kts
23-May-15 19:05 35.061199 -120.477106 13 4025ft 91kts
23-May-15 19:06 35.084350 -120.464319 17 3975ft 90kts
23-May-15 19:07 35.106657 -120.449354 14 3999ft 83kts
23-May-15 19:08 35.123354 -120.456979 303 3867ft 80kts
23-May-15 19:09 35.138519 -120.477088 321 3306ft 96kts
23-May-15 19:10 35.154587 -120.498745 310 2978ft 73kts
23-May-15 19:11 35.167168 -120.520330 309 2782ft 80kts
23-May-15 19:12 35.181152 -120.543985 307 2143ft 101kts
23-May-15 19:13 35.194234 -120.566224 302 1713ft 81kts
23-May-15 19:14 35.206902 -120.589145 310 1359ft 80kts
23-May-15 19:15 35.218583 -120.609603 301 1151ft 59kts
23-May-15 19:16 35.228689 -120.625747 313 666ft 55kts
23-May-15 19:17 35.235672 -120.637832 306 200ft 21kts
23-May-15 19:18 35.238090 -120.640407 320 189ft 11kts

Navigation Log

Ident Type
Flight plan parsing failed, navigation log unavailable